sensor_id;sensor_type;location;lat;lon;timestamp;P1;durP1;ratioP1;P2;durP2;ratioP2
42700;SDS011;28316;49.504;8.526;2022-12-18T00:01:14;12.48;;;7.10;;
42700;SDS011;28316;49.504;8.526;2022-12-18T00:03:46;17.20;;;8.90;;
42700;SDS011;28316;49.504;8.526;2022-12-18T00:06:12;12.90;;;4.22;;
42700;SDS011;28316;49.504;8.526;2022-12-18T00:08:39;11.60;;;6.28;;
42700;SDS011;28316;49.504;8.526;2022-12-18T00:11:06;8.20;;;6.43;;
42700;SDS011;28316;49.504;8.526;2022-12-18T00:13:36;9.55;;;7.00;;
42700;SDS011;28316;49.504;8.526;2022-12-18T00:16:06;5.78;;;4.32;;
42700;SDS011;28316;49.504;8.526;2022-12-18T00:18:35;5.40;;;4.93;;
42700;SDS011;28316;49.504;8.526;2022-12-18T00:21:02;6.07;;;5.32;;
42700;SDS011;28316;49.504;8.526;2022-12-18T00:23:32;18.40;;;5.28;;
42700;SDS011;28316;49.504;8.526;2022-12-18T00:26:00;4.53;;;3.45;;
42700;SDS011;28316;49.504;8.526;2022-12-18T00:28:27;10.13;;;7.18;;
42700;SDS011;28316;49.504;8.526;2022-12-18T00:31:06;7.25;;;5.03;;
42700;SDS011;28316;49.504;8.526;2022-12-18T00:33:35;9.07;;;5.00;;
42700;SDS011;28316;49.504;8.526;2022-12-18T00:36:06;13.35;;;7.97;;
42700;SDS011;28316;49.504;8.526;2022-12-18T00:38:36;12.15;;;6.57;;
42700;SDS011;28316;49.504;8.526;2022-12-18T00:41:14;4.43;;;3.65;;
42700;SDS011;28316;49.504;8.526;2022-12-18T00:44:00;15.80;;;9.02;;
42700;SDS011;28316;49.504;8.526;2022-12-18T00:46:26;13.95;;;6.72;;
42700;SDS011;28316;49.504;8.526;2022-12-18T00:48:52;14.88;;;6.75;;
42700;SDS011;28316;49.504;8.526;2022-12-18T00:51:17;14.57;;;7.78;;
42700;SDS011;28316;49.504;8.526;2022-12-18T00:53:43;14.52;;;9.02;;
42700;SDS011;28316;49.504;8.526;2022-12-18T00:56:09;12.50;;;6.45;;
42700;SDS011;28316;49.504;8.526;2022-12-18T00:58:37;7.82;;;6.45;;
42700;SDS011;28316;49.504;8.526;2022-12-18T01:01:03;14.10;;;8.45;;
42700;SDS011;28316;49.504;8.526;2022-12-18T01:03:30;9.57;;;6.45;;
42700;SDS011;28316;49.504;8.526;2022-12-18T01:05:56;9.48;;;5.65;;
42700;SDS011;28316;49.504;8.526;2022-12-18T01:08:22;5.43;;;4.85;;
42700;SDS011;28316;49.504;8.526;2022-12-18T01:10:48;10.85;;;5.63;;
42700;SDS011;28316;49.504;8.526;2022-12-18T01:13:13;7.07;;;4.25;;
42700;SDS011;28316;49.504;8.526;2022-12-18T01:15:39;10.07;;;5.68;;
42700;SDS011;28316;49.504;8.526;2022-12-18T01:18:05;8.00;;;6.95;;
42700;SDS011;28316;49.504;8.526;2022-12-18T01:20:32;12.48;;;6.15;;
42700;SDS011;28316;49.504;8.526;2022-12-18T01:22:58;12.20;;;5.80;;
42700;SDS011;28316;49.504;8.526;2022-12-18T01:25:23;10.45;;;8.32;;
42700;SDS011;28316;49.504;8.526;2022-12-18T01:27:50;5.82;;;5.30;;
42700;SDS011;28316;49.504;8.526;2022-12-18T01:30:16;8.13;;;5.22;;
42700;SDS011;28316;49.504;8.526;2022-12-18T01:32:41;5.53;;;4.97;;
42700;SDS011;28316;49.504;8.526;2022-12-18T01:35:07;10.30;;;5.85;;
42700;SDS011;28316;49.504;8.526;2022-12-18T01:37:33;19.48;;;6.85;;
42700;SDS011;28316;49.504;8.526;2022-12-18T01:39:59;14.27;;;6.05;;
42700;SDS011;28316;49.504;8.526;2022-12-18T01:42:24;8.82;;;4.65;;
42700;SDS011;28316;49.504;8.526;2022-12-18T01:47:42;7.75;;;5.90;;
42700;SDS011;28316;49.504;8.526;2022-12-18T01:50:32;4.80;;;2.45;;
42700;SDS011;28316;49.504;8.526;2022-12-18T01:53:08;8.65;;;6.30;;
42700;SDS011;28316;49.504;8.526;2022-12-18T01:55:52;14.00;;;6.93;;
42700;SDS011;28316;49.504;8.526;2022-12-18T01:58:27;8.48;;;7.10;;
42700;SDS011;28316;49.504;8.526;2022-12-18T02:01:06;6.45;;;5.75;;
42700;SDS011;28316;49.504;8.526;2022-12-18T02:03:32;9.48;;;6.18;;
42700;SDS011;28316;49.504;8.526;2022-12-18T02:08:36;8.50;;;6.55;;
42700;SDS011;28316;49.504;8.526;2022-12-18T02:14:32;11.18;;;6.32;;
42700;SDS011;28316;49.504;8.526;2022-12-18T02:17:53;10.10;;;6.75;;
42700;SDS011;28316;49.504;8.526;2022-12-18T02:20:32;19.40;;;7.53;;
42700;SDS011;28316;49.504;8.526;2022-12-18T02:31:15;13.55;;;5.57;;
42700;SDS011;28316;49.504;8.526;2022-12-18T02:33:46;15.50;;;6.60;;
42700;SDS011;28316;49.504;8.526;2022-12-18T02:36:14;19.83;;;6.90;;
42700;SDS011;28316;49.504;8.526;2022-12-18T02:38:43;16.65;;;7.93;;
42700;SDS011;28316;49.504;8.526;2022-12-18T02:41:11;8.25;;;4.55;;
42700;SDS011;28316;49.504;8.526;2022-12-18T02:43:39;12.75;;;6.03;;
42700;SDS011;28316;49.504;8.526;2022-12-18T02:46:31;8.48;;;7.35;;
42700;SDS011;28316;49.504;8.526;2022-12-18T02:49:09;13.65;;;6.25;;
42700;SDS011;28316;49.504;8.526;2022-12-18T02:51:50;11.95;;;8.77;;
42700;SDS011;28316;49.504;8.526;2022-12-18T02:54:32;12.25;;;5.05;;
42700;SDS011;28316;49.504;8.526;2022-12-18T02:57:33;10.95;;;5.50;;
42700;SDS011;28316;49.504;8.526;2022-12-18T03:00:10;9.47;;;5.50;;
42700;SDS011;28316;49.504;8.526;2022-12-18T03:05:14;6.05;;;4.82;;
42700;SDS011;28316;49.504;8.526;2022-12-18T03:07:51;7.07;;;5.28;;
42700;SDS011;28316;49.504;8.526;2022-12-18T03:10:25;13.25;;;8.27;;
42700;SDS011;28316;49.504;8.526;2022-12-18T03:13:56;16.55;;;7.70;;
42700;SDS011;28316;49.504;8.526;2022-12-18T03:16:01;5.57;;;3.55;;
42700;SDS011;28316;49.504;8.526;2022-12-18T03:19:31;9.27;;;2.60;;
42700;SDS011;28316;49.504;8.526;2022-12-18T03:21:30;12.52;;;4.38;;
42700;SDS011;28316;49.504;8.526;2022-12-18T03:24:10;7.18;;;4.65;;
42700;SDS011;28316;49.504;8.526;2022-12-18T03:26:37;9.65;;;6.53;;
42700;SDS011;28316;49.504;8.526;2022-12-18T03:29:11;4.18;;;3.65;;
42700;SDS011;28316;49.504;8.526;2022-12-18T03:31:45;14.73;;;6.28;;
42700;SDS011;28316;49.504;8.526;2022-12-18T03:34:22;7.25;;;4.13;;
42700;SDS011;28316;49.504;8.526;2022-12-18T03:36:54;7.50;;;6.78;;
42700;SDS011;28316;49.504;8.526;2022-12-18T03:39:20;8.15;;;4.65;;
42700;SDS011;28316;49.504;8.526;2022-12-18T03:41:55;10.32;;;7.50;;
42700;SDS011;28316;49.504;8.526;2022-12-18T03:44:46;7.78;;;6.65;;
42700;SDS011;28316;49.504;8.526;2022-12-18T03:50:37;10.02;;;4.32;;
42700;SDS011;28316;49.504;8.526;2022-12-18T03:56:13;10.25;;;5.95;;
42700;SDS011;28316;49.504;8.526;2022-12-18T03:58:41;6.50;;;4.30;;
42700;SDS011;28316;49.504;8.526;2022-12-18T04:01:09;8.85;;;5.47;;
42700;SDS011;28316;49.504;8.526;2022-12-18T04:03:38;6.22;;;5.65;;
42700;SDS011;28316;49.504;8.526;2022-12-18T04:06:06;10.70;;;5.38;;
42700;SDS011;28316;49.504;8.526;2022-12-18T04:08:32;12.43;;;7.47;;
42700;SDS011;28316;49.504;8.526;2022-12-18T04:11:00;9.00;;;4.18;;
42700;SDS011;28316;49.504;8.526;2022-12-18T04:13:28;11.07;;;4.47;;
42700;SDS011;28316;49.504;8.526;2022-12-18T04:15:57;7.50;;;4.75;;
42700;SDS011;28316;49.504;8.526;2022-12-18T04:18:23;10.38;;;5.45;;
42700;SDS011;28316;49.504;8.526;2022-12-18T04:20:49;10.50;;;5.63;;
42700;SDS011;28316;49.504;8.526;2022-12-18T04:23:15;6.70;;;4.72;;
42700;SDS011;28316;49.504;8.526;2022-12-18T04:25:40;5.65;;;4.57;;
42700;SDS011;28316;49.504;8.526;2022-12-18T04:28:06;6.78;;;4.85;;
42700;SDS011;28316;49.504;8.526;2022-12-18T04:30:32;15.60;;;7.28;;
42700;SDS011;28316;49.504;8.526;2022-12-18T04:32:57;11.93;;;7.53;;
42700;SDS011;28316;49.504;8.526;2022-12-18T04:35:23;10.52;;;2.85;;
42700;SDS011;28316;49.504;8.526;2022-12-18T04:37:49;15.82;;;5.32;;
42700;SDS011;28316;49.504;8.526;2022-12-18T04:40:14;8.55;;;4.53;;
42700;SDS011;28316;49.504;8.526;2022-12-18T04:42:40;9.77;;;6.00;;
42700;SDS011;28316;49.504;8.526;2022-12-18T04:45:06;12.68;;;5.20;;
42700;SDS011;28316;49.504;8.526;2022-12-18T04:47:33;15.55;;;5.55;;
42700;SDS011;28316;49.504;8.526;2022-12-18T04:49:58;15.00;;;5.03;;
42700;SDS011;28316;49.504;8.526;2022-12-18T04:52:24;14.73;;;5.05;;
42700;SDS011;28316;49.504;8.526;2022-12-18T04:54:50;22.60;;;9.15;;
42700;SDS011;28316;49.504;8.526;2022-12-18T04:57:15;7.70;;;5.22;;
42700;SDS011;28316;49.504;8.526;2022-12-18T04:59:42;14.93;;;5.43;;
42700;SDS011;28316;49.504;8.526;2022-12-18T05:02:09;5.57;;;4.53;;
42700;SDS011;28316;49.504;8.526;2022-12-18T05:04:35;10.60;;;7.07;;
42700;SDS011;28316;49.504;8.526;2022-12-18T05:07:01;11.20;;;6.70;;
42700;SDS011;28316;49.504;8.526;2022-12-18T05:09:26;14.38;;;8.00;;
42700;SDS011;28316;49.504;8.526;2022-12-18T05:11:52;8.70;;;5.05;;
42700;SDS011;28316;49.504;8.526;2022-12-18T05:14:18;6.50;;;5.93;;
42700;SDS011;28316;49.504;8.526;2022-12-18T05:16:44;22.13;;;6.80;;
42700;SDS011;28316;49.504;8.526;2022-12-18T05:19:10;13.13;;;6.28;;
42700;SDS011;28316;49.504;8.526;2022-12-18T05:21:36;14.45;;;5.68;;
42700;SDS011;28316;49.504;8.526;2022-12-18T05:24:02;13.70;;;4.78;;
42700;SDS011;28316;49.504;8.526;2022-12-18T05:26:28;11.90;;;8.02;;
42700;SDS011;28316;49.504;8.526;2022-12-18T05:28:56;9.27;;;7.57;;
42700;SDS011;28316;49.504;8.526;2022-12-18T05:31:22;8.52;;;3.80;;
42700;SDS011;28316;49.504;8.526;2022-12-18T05:33:50;6.65;;;5.07;;
42700;SDS011;28316;49.504;8.526;2022-12-18T05:36:16;8.77;;;5.10;;
42700;SDS011;28316;49.504;8.526;2022-12-18T05:38:42;10.18;;;4.90;;
42700;SDS011;28316;49.504;8.526;2022-12-18T05:41:08;13.07;;;6.57;;
42700;SDS011;28316;49.504;8.526;2022-12-18T05:43:35;22.23;;;8.13;;
42700;SDS011;28316;49.504;8.526;2022-12-18T05:46:04;11.25;;;7.07;;
42700;SDS011;28316;49.504;8.526;2022-12-18T05:48:36;8.73;;;7.28;;
42700;SDS011;28316;49.504;8.526;2022-12-18T05:51:06;11.13;;;5.72;;
42700;SDS011;28316;49.504;8.526;2022-12-18T05:53:34;15.85;;;8.10;;
42700;SDS011;28316;49.504;8.526;2022-12-18T05:56:02;15.35;;;7.45;;
42700;SDS011;28316;49.504;8.526;2022-12-18T05:58:30;11.95;;;5.95;;
42700;SDS011;28316;49.504;8.526;2022-12-18T06:00:57;9.40;;;5.00;;
42700;SDS011;28316;49.504;8.526;2022-12-18T06:03:32;10.75;;;6.65;;
42700;SDS011;28316;49.504;8.526;2022-12-18T06:05:57;10.25;;;6.15;;
42700;SDS011;28316;49.504;8.526;2022-12-18T06:08:23;8.60;;;6.85;;
42700;SDS011;28316;49.504;8.526;2022-12-18T06:10:49;8.82;;;6.82;;
42700;SDS011;28316;49.504;8.526;2022-12-18T06:13:29;18.50;;;6.82;;
42700;SDS011;28316;49.504;8.526;2022-12-18T06:15:54;7.63;;;5.15;;
42700;SDS011;28316;49.504;8.526;2022-12-18T06:18:20;4.20;;;3.75;;
42700;SDS011;28316;49.504;8.526;2022-12-18T06:20:53;19.13;;;4.80;;
42700;SDS011;28316;49.504;8.526;2022-12-18T06:23:23;4.82;;;3.83;;
42700;SDS011;28316;49.504;8.526;2022-12-18T06:25:49;10.02;;;6.50;;
42700;SDS011;28316;49.504;8.526;2022-12-18T06:28:15;9.73;;;4.65;;
42700;SDS011;28316;49.504;8.526;2022-12-18T06:30:43;26.13;;;7.88;;
42700;SDS011;28316;49.504;8.526;2022-12-18T06:33:09;24.27;;;5.68;;
42700;SDS011;28316;49.504;8.526;2022-12-18T06:35:35;13.25;;;7.63;;
42700;SDS011;28316;49.504;8.526;2022-12-18T06:38:01;7.13;;;5.15;;
42700;SDS011;28316;49.504;8.526;2022-12-18T06:40:28;5.85;;;5.35;;
42700;SDS011;28316;49.504;8.526;2022-12-18T06:42:53;24.02;;;6.70;;
42700;SDS011;28316;49.504;8.526;2022-12-18T06:45:19;14.45;;;7.93;;
42700;SDS011;28316;49.504;8.526;2022-12-18T06:47:45;18.38;;;7.97;;
42700;SDS011;28316;49.504;8.526;2022-12-18T06:50:11;12.88;;;7.90;;
42700;SDS011;28316;49.504;8.526;2022-12-18T06:52:38;29.65;;;7.03;;
42700;SDS011;28316;49.504;8.526;2022-12-18T06:55:06;20.38;;;7.47;;
42700;SDS011;28316;49.504;8.526;2022-12-18T06:57:35;19.63;;;9.33;;
42700;SDS011;28316;49.504;8.526;2022-12-18T07:00:02;13.07;;;10.52;;
42700;SDS011;28316;49.504;8.526;2022-12-18T07:02:30;12.20;;;5.45;;
42700;SDS011;28316;49.504;8.526;2022-12-18T07:04:56;16.40;;;8.27;;
42700;SDS011;28316;49.504;8.526;2022-12-18T07:07:22;12.95;;;6.30;;
42700;SDS011;28316;49.504;8.526;2022-12-18T07:09:49;19.30;;;9.10;;
42700;SDS011;28316;49.504;8.526;2022-12-18T07:12:15;10.65;;;5.65;;
42700;SDS011;28316;49.504;8.526;2022-12-18T07:14:41;8.00;;;5.38;;
42700;SDS011;28316;49.504;8.526;2022-12-18T07:17:07;15.18;;;9.52;;
42700;SDS011;28316;49.504;8.526;2022-12-18T07:19:33;33.15;;;8.05;;
42700;SDS011;28316;49.504;8.526;2022-12-18T07:21:59;15.82;;;5.30;;
42700;SDS011;28316;49.504;8.526;2022-12-18T07:24:25;4.63;;;4.25;;
42700;SDS011;28316;49.504;8.526;2022-12-18T07:26:51;8.65;;;6.03;;
42700;SDS011;28316;49.504;8.526;2022-12-18T07:29:17;9.63;;;5.30;;
42700;SDS011;28316;49.504;8.526;2022-12-18T07:31:42;7.18;;;6.35;;
42700;SDS011;28316;49.504;8.526;2022-12-18T07:34:11;10.07;;;6.50;;
42700;SDS011;28316;49.504;8.526;2022-12-18T07:36:39;14.02;;;7.28;;
42700;SDS011;28316;49.504;8.526;2022-12-18T07:39:05;8.00;;;6.55;;
42700;SDS011;28316;49.504;8.526;2022-12-18T07:41:31;7.53;;;3.70;;
42700;SDS011;28316;49.504;8.526;2022-12-18T07:43:57;5.07;;;4.60;;
42700;SDS011;28316;49.504;8.526;2022-12-18T07:46:22;12.38;;;5.90;;
42700;SDS011;28316;49.504;8.526;2022-12-18T07:48:48;12.23;;;5.10;;
42700;SDS011;28316;49.504;8.526;2022-12-18T07:51:14;26.55;;;9.05;;
42700;SDS011;28316;49.504;8.526;2022-12-18T07:53:40;9.65;;;7.63;;
42700;SDS011;28316;49.504;8.526;2022-12-18T07:56:07;10.40;;;6.00;;
42700;SDS011;28316;49.504;8.526;2022-12-18T07:58:35;5.57;;;4.97;;
42700;SDS011;28316;49.504;8.526;2022-12-18T08:01:05;13.50;;;8.10;;
42700;SDS011;28316;49.504;8.526;2022-12-18T08:03:33;6.95;;;4.03;;
42700;SDS011;28316;49.504;8.526;2022-12-18T08:06:00;9.10;;;7.13;;
42700;SDS011;28316;49.504;8.526;2022-12-18T08:08:30;10.00;;;5.15;;
42700;SDS011;28316;49.504;8.526;2022-12-18T08:10:56;18.83;;;5.47;;
42700;SDS011;28316;49.504;8.526;2022-12-18T08:13:23;14.65;;;6.90;;
42700;SDS011;28316;49.504;8.526;2022-12-18T08:15:56;15.63;;;6.35;;
42700;SDS011;28316;49.504;8.526;2022-12-18T08:18:34;17.85;;;5.63;;
42700;SDS011;28316;49.504;8.526;2022-12-18T08:21:08;12.70;;;7.22;;
42700;SDS011;28316;49.504;8.526;2022-12-18T08:26:10;16.33;;;5.40;;
42700;SDS011;28316;49.504;8.526;2022-12-18T08:28:36;15.32;;;5.97;;
42700;SDS011;28316;49.504;8.526;2022-12-18T08:31:02;12.55;;;5.22;;
42700;SDS011;28316;49.504;8.526;2022-12-18T08:33:28;6.70;;;5.18;;
42700;SDS011;28316;49.504;8.526;2022-12-18T08:35:54;30.63;;;6.95;;
42700;SDS011;28316;49.504;8.526;2022-12-18T08:38:20;9.32;;;7.50;;
42700;SDS011;28316;49.504;8.526;2022-12-18T08:40:46;7.93;;;7.00;;
42700;SDS011;28316;49.504;8.526;2022-12-18T08:43:12;8.75;;;7.47;;
42700;SDS011;28316;49.504;8.526;2022-12-18T08:45:56;12.98;;;8.35;;
42700;SDS011;28316;49.504;8.526;2022-12-18T08:48:22;12.77;;;5.40;;
42700;SDS011;28316;49.504;8.526;2022-12-18T08:50:57;18.77;;;8.43;;
42700;SDS011;28316;49.504;8.526;2022-12-18T08:53:24;15.48;;;9.30;;
42700;SDS011;28316;49.504;8.526;2022-12-18T08:55:50;24.08;;;8.85;;
42700;SDS011;28316;49.504;8.526;2022-12-18T08:58:16;9.85;;;5.13;;
42700;SDS011;28316;49.504;8.526;2022-12-18T09:00:42;7.00;;;5.65;;
42700;SDS011;28316;49.504;8.526;2022-12-18T09:03:16;7.35;;;5.53;;
42700;SDS011;28316;49.504;8.526;2022-12-18T09:05:43;29.90;;;5.82;;
42700;SDS011;28316;49.504;8.526;2022-12-18T09:08:12;11.73;;;8.38;;
42700;SDS011;28316;49.504;8.526;2022-12-18T09:10:41;16.42;;;5.43;;
42700;SDS011;28316;49.504;8.526;2022-12-18T09:13:10;22.92;;;6.20;;
42700;SDS011;28316;49.504;8.526;2022-12-18T09:15:46;15.13;;;8.40;;
42700;SDS011;28316;49.504;8.526;2022-12-18T09:18:15;26.45;;;13.40;;
42700;SDS011;28316;49.504;8.526;2022-12-18T09:20:43;14.43;;;9.35;;
42700;SDS011;28316;49.504;8.526;2022-12-18T09:23:09;14.30;;;8.45;;
42700;SDS011;28316;49.504;8.526;2022-12-18T09:25:36;10.15;;;6.63;;
42700;SDS011;28316;49.504;8.526;2022-12-18T09:28:04;14.15;;;6.88;;
42700;SDS011;28316;49.504;8.526;2022-12-18T09:30:43;6.88;;;5.88;;
42700;SDS011;28316;49.504;8.526;2022-12-18T09:33:14;19.55;;;9.05;;
42700;SDS011;28316;49.504;8.526;2022-12-18T09:35:41;18.60;;;8.52;;
42700;SDS011;28316;49.504;8.526;2022-12-18T09:38:18;14.20;;;8.18;;
42700;SDS011;28316;49.504;8.526;2022-12-18T09:40:45;15.10;;;10.40;;
42700;SDS011;28316;49.504;8.526;2022-12-18T09:43:20;19.30;;;8.85;;
42700;SDS011;28316;49.504;8.526;2022-12-18T09:45:56;9.70;;;8.38;;
42700;SDS011;28316;49.504;8.526;2022-12-18T09:48:29;27.40;;;10.13;;
42700;SDS011;28316;49.504;8.526;2022-12-18T09:51:03;30.30;;;7.97;;
42700;SDS011;28316;49.504;8.526;2022-12-18T09:53:39;11.25;;;7.80;;
42700;SDS011;28316;49.504;8.526;2022-12-18T09:56:11;23.67;;;8.32;;
42700;SDS011;28316;49.504;8.526;2022-12-18T09:58:48;25.48;;;8.90;;
42700;SDS011;28316;49.504;8.526;2022-12-18T10:01:26;21.52;;;9.80;;
42700;SDS011;28316;49.504;8.526;2022-12-18T10:03:54;30.30;;;10.10;;
42700;SDS011;28316;49.504;8.526;2022-12-18T10:06:25;18.10;;;11.43;;
42700;SDS011;28316;49.504;8.526;2022-12-18T10:14:51;37.83;;;13.38;;
42700;SDS011;28316;49.504;8.526;2022-12-18T10:20:42;16.75;;;9.00;;
42700;SDS011;28316;49.504;8.526;2022-12-18T10:23:19;34.92;;;11.32;;
42700;SDS011;28316;49.504;8.526;2022-12-18T10:26:04;31.40;;;11.82;;
42700;SDS011;28316;49.504;8.526;2022-12-18T10:28:39;26.20;;;11.18;;
42700;SDS011;28316;49.504;8.526;2022-12-18T10:31:06;32.85;;;10.95;;
42700;SDS011;28316;49.504;8.526;2022-12-18T10:33:41;26.85;;;11.32;;
42700;SDS011;28316;49.504;8.526;2022-12-18T10:36:07;33.20;;;10.88;;
42700;SDS011;28316;49.504;8.526;2022-12-18T10:38:33;25.33;;;10.63;;
42700;SDS011;28316;49.504;8.526;2022-12-18T10:41:04;31.33;;;11.73;;
42700;SDS011;28316;49.504;8.526;2022-12-18T10:44:10;29.35;;;12.30;;
42700;SDS011;28316;49.504;8.526;2022-12-18T10:46:53;30.67;;;11.40;;
42700;SDS011;28316;49.504;8.526;2022-12-18T10:49:28;45.45;;;13.60;;
42700;SDS011;28316;49.504;8.526;2022-12-18T10:52:30;41.60;;;13.38;;
42700;SDS011;28316;49.504;8.526;2022-12-18T10:54:52;26.58;;;13.40;;
42700;SDS011;28316;49.504;8.526;2022-12-18T10:57:33;25.42;;;11.75;;
42700;SDS011;28316;49.504;8.526;2022-12-18T11:00:22;26.25;;;11.32;;
42700;SDS011;28316;49.504;8.526;2022-12-18T11:02:54;34.22;;;11.73;;
42700;SDS011;28316;49.504;8.526;2022-12-18T11:08:01;34.78;;;12.85;;
42700;SDS011;28316;49.504;8.526;2022-12-18T11:10:35;44.10;;;14.50;;
42700;SDS011;28316;49.504;8.526;2022-12-18T11:13:11;36.28;;;13.02;;
42700;SDS011;28316;49.504;8.526;2022-12-18T11:15:43;36.53;;;14.32;;
42700;SDS011;28316;49.504;8.526;2022-12-18T11:21:09;35.05;;;15.02;;
42700;SDS011;28316;49.504;8.526;2022-12-18T11:23:43;56.92;;;14.85;;
42700;SDS011;28316;49.504;8.526;2022-12-18T11:26:16;41.80;;;14.85;;
42700;SDS011;28316;49.504;8.526;2022-12-18T11:28:44;37.50;;;13.52;;
42700;SDS011;28316;49.504;8.526;2022-12-18T11:31:40;33.22;;;14.75;;
42700;SDS011;28316;49.504;8.526;2022-12-18T11:34:14;34.22;;;13.52;;
42700;SDS011;28316;49.504;8.526;2022-12-18T11:36:52;33.08;;;13.75;;
42700;SDS011;28316;49.504;8.526;2022-12-18T11:39:20;44.35;;;13.98;;
42700;SDS011;28316;49.504;8.526;2022-12-18T11:42:04;34.13;;;13.25;;
42700;SDS011;28316;49.504;8.526;2022-12-18T11:44:51;45.50;;;15.23;;
42700;SDS011;28316;49.504;8.526;2022-12-18T11:50:12;41.25;;;13.93;;
42700;SDS011;28316;49.504;8.526;2022-12-18T11:52:53;40.40;;;15.35;;
42700;SDS011;28316;49.504;8.526;2022-12-18T11:55:27;33.78;;;15.80;;
42700;SDS011;28316;49.504;8.526;2022-12-18T12:12:41;41.53;;;14.38;;
42700;SDS011;28316;49.504;8.526;2022-12-18T12:15:36;32.17;;;13.23;;
42700;SDS011;28316;49.504;8.526;2022-12-18T12:21:24;32.50;;;13.25;;
42700;SDS011;28316;49.504;8.526;2022-12-18T12:29:54;37.25;;;11.60;;
42700;SDS011;28316;49.504;8.526;2022-12-18T12:32:41;31.88;;;11.70;;
42700;SDS011;28316;49.504;8.526;2022-12-18T12:35:19;32.15;;;12.75;;
42700;SDS011;28316;49.504;8.526;2022-12-18T12:38:00;24.85;;;13.55;;
42700;SDS011;28316;49.504;8.526;2022-12-18T12:40:46;32.80;;;11.70;;
42700;SDS011;28316;49.504;8.526;2022-12-18T12:43:24;37.05;;;11.90;;
42700;SDS011;28316;49.504;8.526;2022-12-18T12:46:11;18.05;;;9.52;;
42700;SDS011;28316;49.504;8.526;2022-12-18T12:48:47;38.33;;;13.15;;
42700;SDS011;28316;49.504;8.526;2022-12-18T12:51:21;24.10;;;11.57;;
42700;SDS011;28316;49.504;8.526;2022-12-18T12:53:57;31.27;;;12.75;;
42700;SDS011;28316;49.504;8.526;2022-12-18T13:05:25;21.25;;;11.77;;
42700;SDS011;28316;49.504;8.526;2022-12-18T13:08:10;22.38;;;11.00;;
42700;SDS011;28316;49.504;8.526;2022-12-18T13:10:48;24.65;;;10.88;;
42700;SDS011;28316;49.504;8.526;2022-12-18T13:13:14;25.48;;;11.57;;
42700;SDS011;28316;49.504;8.526;2022-12-18T13:16:03;27.17;;;10.55;;
42700;SDS011;28316;49.504;8.526;2022-12-18T13:18:31;23.92;;;12.35;;
42700;SDS011;28316;49.504;8.526;2022-12-18T13:25:49;27.50;;;11.15;;
42700;SDS011;28316;49.504;8.526;2022-12-18T13:28:21;16.70;;;9.10;;
42700;SDS011;28316;49.504;8.526;2022-12-18T13:34:25;21.88;;;9.57;;
42700;SDS011;28316;49.504;8.526;2022-12-18T13:36:54;20.48;;;9.73;;
42700;SDS011;28316;49.504;8.526;2022-12-18T13:39:42;17.00;;;9.32;;
42700;SDS011;28316;49.504;8.526;2022-12-18T13:44:34;28.95;;;13.30;;
42700;SDS011;28316;49.504;8.526;2022-12-18T13:47:05;21.98;;;9.32;;
42700;SDS011;28316;49.504;8.526;2022-12-18T13:49:57;18.45;;;10.27;;
42700;SDS011;28316;49.504;8.526;2022-12-18T13:52:33;19.60;;;10.55;;
42700;SDS011;28316;49.504;8.526;2022-12-18T13:55:05;16.80;;;9.37;;
42700;SDS011;28316;49.504;8.526;2022-12-18T13:57:40;15.88;;;7.18;;
42700;SDS011;28316;49.504;8.526;2022-12-18T14:00:40;23.90;;;10.10;;
42700;SDS011;28316;49.504;8.526;2022-12-18T14:02:58;20.92;;;9.70;;
42700;SDS011;28316;49.504;8.526;2022-12-18T14:05:29;20.13;;;10.68;;
42700;SDS011;28316;49.504;8.526;2022-12-18T14:08:08;25.05;;;9.60;;
42700;SDS011;28316;49.504;8.526;2022-12-18T14:10:41;15.55;;;9.43;;
42700;SDS011;28316;49.504;8.526;2022-12-18T14:13:11;23.85;;;11.10;;
42700;SDS011;28316;49.504;8.526;2022-12-18T14:15:49;23.17;;;9.75;;
42700;SDS011;28316;49.504;8.526;2022-12-18T14:21:21;25.15;;;12.07;;
42700;SDS011;28316;49.504;8.526;2022-12-18T14:24:03;26.77;;;8.85;;
42700;SDS011;28316;49.504;8.526;2022-12-18T14:26:49;17.65;;;9.93;;
42700;SDS011;28316;49.504;8.526;2022-12-18T14:29:23;28.88;;;10.40;;
42700;SDS011;28316;49.504;8.526;2022-12-18T14:32:03;17.45;;;9.40;;
42700;SDS011;28316;49.504;8.526;2022-12-18T14:34:31;39.75;;;13.07;;
42700;SDS011;28316;49.504;8.526;2022-12-18T14:36:57;33.33;;;13.18;;
42700;SDS011;28316;49.504;8.526;2022-12-18T14:39:22;18.17;;;9.00;;
42700;SDS011;28316;49.504;8.526;2022-12-18T14:41:50;29.33;;;11.75;;
42700;SDS011;28316;49.504;8.526;2022-12-18T14:44:17;22.58;;;10.18;;
42700;SDS011;28316;49.504;8.526;2022-12-18T14:46:43;22.70;;;10.73;;
42700;SDS011;28316;49.504;8.526;2022-12-18T14:49:19;17.65;;;9.60;;
42700;SDS011;28316;49.504;8.526;2022-12-18T14:52:01;19.40;;;8.95;;
42700;SDS011;28316;49.504;8.526;2022-12-18T14:54:31;25.73;;;11.63;;
42700;SDS011;28316;49.504;8.526;2022-12-18T14:57:03;17.45;;;7.80;;
42700;SDS011;28316;49.504;8.526;2022-12-18T14:59:47;18.05;;;8.07;;
42700;SDS011;28316;49.504;8.526;2022-12-18T15:02:16;16.13;;;8.30;;
42700;SDS011;28316;49.504;8.526;2022-12-18T15:05:16;19.98;;;10.38;;
42700;SDS011;28316;49.504;8.526;2022-12-18T15:07:50;19.13;;;9.27;;
42700;SDS011;28316;49.504;8.526;2022-12-18T15:10:19;18.40;;;8.20;;
42700;SDS011;28316;49.504;8.526;2022-12-18T15:20:32;16.38;;;8.85;;
42700;SDS011;28316;49.504;8.526;2022-12-18T15:23:27;18.40;;;8.00;;
42700;SDS011;28316;49.504;8.526;2022-12-18T15:26:18;16.55;;;6.80;;
42700;SDS011;28316;49.504;8.526;2022-12-18T15:28:47;20.60;;;8.18;;
42700;SDS011;28316;49.504;8.526;2022-12-18T15:36:24;12.85;;;8.40;;
42700;SDS011;28316;49.504;8.526;2022-12-18T15:39:01;20.42;;;9.98;;
42700;SDS011;28316;49.504;8.526;2022-12-18T15:41:27;14.43;;;8.18;;
42700;SDS011;28316;49.504;8.526;2022-12-18T15:43:55;19.90;;;9.07;;
42700;SDS011;28316;49.504;8.526;2022-12-18T15:46:22;12.85;;;8.40;;
42700;SDS011;28316;49.504;8.526;2022-12-18T15:48:50;24.67;;;10.93;;
42700;SDS011;28316;49.504;8.526;2022-12-18T15:54:00;9.23;;;8.32;;
42700;SDS011;28316;49.504;8.526;2022-12-18T15:56:29;12.98;;;7.43;;
42700;SDS011;28316;49.504;8.526;2022-12-18T15:59:15;16.30;;;8.38;;
42700;SDS011;28316;49.504;8.526;2022-12-18T16:01:46;15.48;;;6.90;;
42700;SDS011;28316;49.504;8.526;2022-12-18T16:04:16;17.20;;;11.32;;
42700;SDS011;28316;49.504;8.526;2022-12-18T16:06:47;16.05;;;8.35;;
42700;SDS011;28316;49.504;8.526;2022-12-18T16:09:13;14.15;;;10.20;;
42700;SDS011;28316;49.504;8.526;2022-12-18T16:11:41;19.85;;;7.85;;
42700;SDS011;28316;49.504;8.526;2022-12-18T16:14:21;19.33;;;11.50;;
42700;SDS011;28316;49.504;8.526;2022-12-18T16:16:53;18.45;;;9.32;;
42700;SDS011;28316;49.504;8.526;2022-12-18T16:19:21;18.45;;;8.80;;
42700;SDS011;28316;49.504;8.526;2022-12-18T16:21:48;13.77;;;9.10;;
42700;SDS011;28316;49.504;8.526;2022-12-18T16:24:17;29.52;;;11.77;;
42700;SDS011;28316;49.504;8.526;2022-12-18T16:26:49;15.40;;;10.75;;
42700;SDS011;28316;49.504;8.526;2022-12-18T16:29:19;21.02;;;9.30;;
42700;SDS011;28316;49.504;8.526;2022-12-18T16:31:51;23.67;;;10.30;;
42700;SDS011;28316;49.504;8.526;2022-12-18T16:34:26;16.58;;;9.95;;
42700;SDS011;28316;49.504;8.526;2022-12-18T16:37:01;17.55;;;8.32;;
42700;SDS011;28316;49.504;8.526;2022-12-18T16:39:33;17.48;;;8.35;;
42700;SDS011;28316;49.504;8.526;2022-12-18T16:41:59;15.45;;;6.97;;
42700;SDS011;28316;49.504;8.526;2022-12-18T16:44:31;19.02;;;10.32;;
42700;SDS011;28316;49.504;8.526;2022-12-18T16:46:58;27.73;;;10.45;;
42700;SDS011;28316;49.504;8.526;2022-12-18T16:49:26;16.27;;;9.57;;